SWR27K LFKC-LSGG
Flight info
| Callsign | SWR27K |
|---|---|
| Flight time | 0h 52m |
| Altitude | 30000 |
| Route | SODRI DCT IRMAR/N0382F280 DCT KINES |
| Aircraft | A320/M-SDE3FGHIRWY/LB1 |
Departure
| Time | 2026-04-23 17:35 |
|---|---|
| Airport | Calvi Sainte Catherine Airport (LFKC) |
Arrival
| Time | 2026-04-23 18:28 |
|---|---|
| Airport | Geneva International Airport (LSGG) |
| Time | Latitude | Longitude | Altitude | Speed | Heading |
|---|---|---|---|---|---|
| 2026-04-23 17:11 | 42.52516 | 8.79083 | 195 ft | 0 kts | 302° |
| 2026-04-23 17:28 | 42.52505 | 8.79109 | 197 ft | 4 kts | 292° |
| 2026-04-23 17:29 | 42.52500 | 8.79142 | 209 ft | 4 kts | 256° |
| 2026-04-23 17:29 | 42.52509 | 8.79161 | 206 ft | 2 kts | 180° |
| 2026-04-23 17:29 | 42.52514 | 8.79161 | 205 ft | 0 kts | 179° |
| 2026-04-23 17:31 | 42.52511 | 8.79161 | 206 ft | 2 kts | 179° |
| 2026-04-23 17:32 | 42.52482 | 8.79161 | 201 ft | 5 kts | 179° |
| 2026-04-23 17:32 | 42.52449 | 8.79169 | 200 ft | 4 kts | 147° |
| 2026-04-23 17:32 | 42.52448 | 8.79207 | 196 ft | 8 kts | 100° |
| 2026-04-23 17:32 | 42.52412 | 8.79295 | 193 ft | 12 kts | 159° |
| 2026-04-23 17:33 | 42.52343 | 8.79301 | 202 ft | 8 kts | 181° |
| 2026-04-23 17:33 | 42.52288 | 8.79300 | 194 ft | 11 kts | 181° |
| 2026-04-23 17:33 | 42.52175 | 8.79303 | 207 ft | 20 kts | 178° |
| 2026-04-23 17:33 | 42.52085 | 8.79275 | 213 ft | 6 kts | 212° |
| 2026-04-23 17:34 | 42.52062 | 8.79261 | 206 ft | 2 kts | 187° |
| 2026-04-23 17:34 | 42.52048 | 8.79280 | 214 ft | 6 kts | 112° |
| 2026-04-23 17:34 | 42.52110 | 8.79301 | 205 ft | 5 kts | 359° |
| 2026-04-23 17:35 | 42.52133 | 8.79300 | 202 ft | 22 kts | 359° |
| 2026-04-23 17:35 | 42.53157 | 8.79301 | 150 ft | 144 kts | 0° |
| 2026-04-23 17:35 | 42.54627 | 8.79291 | 833 ft | 161 kts | 0° |
| 2026-04-23 17:36 | 42.55764 | 8.79280 | 1540 ft | 165 kts | 1° |
| 2026-04-23 17:36 | 42.56918 | 8.79272 | 2286 ft | 171 kts | 1° |
| 2026-04-23 17:36 | 42.58138 | 8.78844 | 2691 ft | 199 kts | 326° |
| 2026-04-23 17:36 | 42.58964 | 8.77200 | 3086 ft | 228 kts | 292° |
| 2026-04-23 17:37 | 42.59610 | 8.75109 | 3597 ft | 253 kts | 299° |
| 2026-04-23 17:37 | 42.60585 | 8.73068 | 4290 ft | 268 kts | 308° |
| 2026-04-23 17:37 | 42.63019 | 8.69072 | 6252 ft | 280 kts | 314° |
| 2026-04-23 17:38 | 42.64296 | 8.67058 | 7241 ft | 283 kts | 313° |
| 2026-04-23 17:38 | 42.65570 | 8.65001 | 8246 ft | 286 kts | 313° |
| 2026-04-23 17:38 | 42.66775 | 8.62826 | 9236 ft | 291 kts | 310° |
| 2026-04-23 17:38 | 42.67936 | 8.60547 | 10216 ft | 295 kts | 308° |
| 2026-04-23 17:39 | 42.69113 | 8.58159 | 10719 ft | 316 kts | 307° |
| 2026-04-23 17:39 | 42.70395 | 8.55630 | 11278 ft | 330 kts | 312° |
| 2026-04-23 17:39 | 42.71998 | 8.53391 | 12087 ft | 331 kts | 324° |
| 2026-04-23 17:39 | 42.73925 | 8.51688 | 12977 ft | 331 kts | 337° |
| 2026-04-23 17:40 | 42.76055 | 8.50494 | 13861 ft | 333 kts | 342° |
| 2026-04-23 17:40 | 42.78226 | 8.49357 | 14645 ft | 336 kts | 342° |
| 2026-04-23 17:40 | 42.80424 | 8.48211 | 15408 ft | 340 kts | 342° |
| 2026-04-23 17:40 | 42.82642 | 8.47057 | 16172 ft | 343 kts | 342° |
| 2026-04-23 17:41 | 42.84886 | 8.45885 | 16911 ft | 347 kts | 342° |
| 2026-04-23 17:41 | 42.89443 | 8.43489 | 18399 ft | 355 kts | 341° |
| 2026-04-23 17:41 | 42.91758 | 8.42264 | 19044 ft | 359 kts | 341° |
| 2026-04-23 17:42 | 42.96427 | 8.39779 | 20281 ft | 367 kts | 341° |
| 2026-04-23 17:42 | 42.98816 | 8.38509 | 20886 ft | 371 kts | 341° |
| 2026-04-23 17:42 | 43.01220 | 8.37160 | 21487 ft | 376 kts | 335° |
| 2026-04-23 17:43 | 43.03491 | 8.35338 | 22072 ft | 382 kts | 330° |
| 2026-04-23 17:43 | 43.05753 | 8.33402 | 22650 ft | 386 kts | 330° |
| 2026-04-23 17:43 | 43.08045 | 8.31438 | 23214 ft | 391 kts | 329° |
| 2026-04-23 17:43 | 43.10361 | 8.29449 | 23782 ft | 395 kts | 329° |
| 2026-04-23 17:44 | 43.12700 | 8.27444 | 24268 ft | 399 kts | 329° |
| 2026-04-23 17:44 | 43.15065 | 8.25419 | 24763 ft | 402 kts | 330° |
| 2026-04-23 17:44 | 43.19848 | 8.21316 | 25731 ft | 409 kts | 330° |
| 2026-04-23 17:45 | 43.21449 | 8.19938 | 26045 ft | 411 kts | 330° |
| 2026-04-23 17:45 | 43.26328 | 8.15733 | 26968 ft | 417 kts | 330° |
| 2026-04-23 17:45 | 43.28799 | 8.13602 | 27425 ft | 421 kts | 330° |
| 2026-04-23 17:46 | 43.33787 | 8.09294 | 28313 ft | 427 kts | 330° |
| 2026-04-23 17:46 | 43.36309 | 8.07108 | 28765 ft | 430 kts | 330° |
| 2026-04-23 17:46 | 43.38848 | 8.04907 | 29223 ft | 433 kts | 330° |
| 2026-04-23 17:47 | 43.41404 | 8.02692 | 29640 ft | 436 kts | 330° |
| 2026-04-23 17:47 | 43.43978 | 8.00457 | 30060 ft | 439 kts | 330° |
| 2026-04-23 17:47 | 43.49068 | 7.96029 | 30174 ft | 418 kts | 329° |
| 2026-04-23 17:48 | 43.51493 | 7.93912 | 30185 ft | 409 kts | 329° |
| 2026-04-23 17:48 | 43.56273 | 7.89747 | 30175 ft | 405 kts | 330° |
| 2026-04-23 17:49 | 43.61034 | 7.85596 | 30187 ft | 405 kts | 330° |
| 2026-04-23 17:49 | 43.65762 | 7.81469 | 30187 ft | 405 kts | 329° |
| 2026-04-23 17:50 | 43.70517 | 7.77303 | 30184 ft | 405 kts | 329° |
| 2026-04-23 17:50 | 43.77640 | 7.71040 | 30176 ft | 404 kts | 329° |
| 2026-04-23 17:51 | 43.82384 | 7.66863 | 30184 ft | 404 kts | 329° |
| 2026-04-23 17:52 | 43.89485 | 7.60585 | 30168 ft | 404 kts | 329° |
| 2026-04-23 17:52 | 43.96594 | 7.54294 | 30168 ft | 405 kts | 329° |
| 2026-04-23 17:53 | 44.03717 | 7.47965 | 30170 ft | 405 kts | 329° |
| 2026-04-23 17:54 | 44.08462 | 7.43741 | 30170 ft | 405 kts | 329° |
| 2026-04-23 17:54 | 44.15579 | 7.37393 | 30169 ft | 405 kts | 329° |
| 2026-04-23 17:55 | 44.22687 | 7.31022 | 30159 ft | 405 kts | 329° |
| 2026-04-23 17:56 | 44.27431 | 7.26766 | 30161 ft | 404 kts | 329° |
| 2026-04-23 17:56 | 44.34536 | 7.20383 | 30162 ft | 405 kts | 329° |
| 2026-04-23 17:57 | 44.39245 | 7.16140 | 30156 ft | 405 kts | 329° |
| 2026-04-23 17:58 | 44.46347 | 7.09727 | 30164 ft | 405 kts | 329° |
| 2026-04-23 17:58 | 44.50855 | 7.05640 | 30166 ft | 405 kts | 329° |
| 2026-04-23 18:00 | 44.54925 | 7.01937 | 30159 ft | 405 kts | 329° |
| 2026-04-23 18:00 | 44.59652 | 6.97639 | 30164 ft | 405 kts | 329° |
| 2026-04-23 18:01 | 44.64379 | 6.93338 | 30169 ft | 405 kts | 329° |
| 2026-04-23 18:01 | 44.69104 | 6.89016 | 30170 ft | 405 kts | 329° |
| 2026-04-23 18:02 | 44.73831 | 6.84701 | 30171 ft | 405 kts | 329° |
| 2026-04-23 18:02 | 44.78658 | 6.80636 | 30161 ft | 404 kts | 339° |
| 2026-04-23 18:03 | 44.84047 | 6.78770 | 30155 ft | 398 kts | 359° |
| 2026-04-23 18:03 | 44.89583 | 6.78421 | 30159 ft | 399 kts | 0° |
| 2026-04-23 18:04 | 44.95132 | 6.78043 | 29761 ft | 406 kts | 357° |
| 2026-04-23 18:04 | 44.97937 | 6.77648 | 29585 ft | 402 kts | 358° |
| 2026-04-23 18:04 | 45.00725 | 6.77409 | 29583 ft | 401 kts | 0° |
| 2026-04-23 18:04 | 45.03511 | 6.77276 | 29698 ft | 400 kts | 1° |
| 2026-04-23 18:05 | 45.06260 | 6.77184 | 29977 ft | 400 kts | 1° |
| 2026-04-23 18:05 | 45.09045 | 6.77083 | 30160 ft | 401 kts | 1° |
| 2026-04-23 18:05 | 45.11835 | 6.76952 | 30196 ft | 401 kts | 0° |
| 2026-04-23 18:06 | 45.17408 | 6.76605 | 30191 ft | 401 kts | 360° |
| 2026-04-23 18:06 | 45.22979 | 6.76214 | 30202 ft | 401 kts | 0° |
| 2026-04-23 18:07 | 45.28559 | 6.75828 | 30200 ft | 401 kts | 0° |
| 2026-04-23 18:07 | 45.34130 | 6.75260 | 30204 ft | 404 kts | 352° |
| 2026-04-23 18:08 | 45.38718 | 6.74006 | 30189 ft | 404 kts | 352° |
| 2026-04-23 18:08 | 45.42396 | 6.73004 | 29891 ft | 400 kts | 352° |
| 2026-04-23 18:08 | 45.45124 | 6.72264 | 29615 ft | 398 kts | 352° |
| 2026-04-23 18:08 | 45.47835 | 6.71527 | 29331 ft | 395 kts | 352° |
| 2026-04-23 18:09 | 45.50524 | 6.70796 | 29067 ft | 391 kts | 352° |
| 2026-04-23 18:09 | 45.53172 | 6.70076 | 28667 ft | 385 kts | 352° |
| 2026-04-23 18:09 | 45.55789 | 6.69381 | 28258 ft | 380 kts | 353° |
| 2026-04-23 18:09 | 45.58373 | 6.68714 | 27830 ft | 375 kts | 353° |
| 2026-04-23 18:10 | 45.60931 | 6.68062 | 27424 ft | 371 kts | 353° |
| 2026-04-23 18:10 | 45.63430 | 6.67428 | 27000 ft | 368 kts | 353° |
| 2026-04-23 18:10 | 45.65975 | 6.66776 | 26573 ft | 365 kts | 353° |
| 2026-04-23 18:10 | 45.68433 | 6.66138 | 26133 ft | 363 kts | 352° |
| 2026-04-23 18:11 | 45.70909 | 6.65493 | 25686 ft | 361 kts | 352° |
| 2026-04-23 18:11 | 45.73374 | 6.64850 | 25243 ft | 360 kts | 352° |
| 2026-04-23 18:11 | 45.75833 | 6.64208 | 24781 ft | 359 kts | 352° |
| 2026-04-23 18:11 | 45.78282 | 6.63556 | 24317 ft | 358 kts | 352° |
| 2026-04-23 18:12 | 45.80734 | 6.62892 | 23690 ft | 361 kts | 351° |
| 2026-04-23 18:12 | 45.83187 | 6.62220 | 23314 ft | 356 kts | 351° |
| 2026-04-23 18:12 | 45.85607 | 6.61561 | 22870 ft | 353 kts | 351° |
| 2026-04-23 18:12 | 45.88010 | 6.60910 | 22421 ft | 351 kts | 351° |
| 2026-04-23 18:13 | 45.90402 | 6.60264 | 21977 ft | 349 kts | 351° |
| 2026-04-23 18:13 | 45.92779 | 6.59623 | 21528 ft | 347 kts | 351° |
| 2026-04-23 18:13 | 45.95147 | 6.58981 | 21093 ft | 345 kts | 351° |
| 2026-04-23 18:13 | 45.97506 | 6.58335 | 20659 ft | 344 kts | 351° |
| 2026-04-23 18:14 | 45.99852 | 6.57694 | 20228 ft | 343 kts | 351° |
| 2026-04-23 18:14 | 46.02182 | 6.56976 | 19794 ft | 343 kts | 345° |
| 2026-04-23 18:14 | 46.04358 | 6.55596 | 19364 ft | 343 kts | 330° |
| 2026-04-23 18:14 | 46.06248 | 6.53497 | 18932 ft | 345 kts | 317° |
| 2026-04-23 18:15 | 46.07757 | 6.50799 | 18477 ft | 347 kts | 306° |
| 2026-04-23 18:15 | 46.09111 | 6.47928 | 18003 ft | 346 kts | 306° |
| 2026-04-23 18:15 | 46.10455 | 6.45070 | 17594 ft | 342 kts | 306° |
| 2026-04-23 18:15 | 46.11785 | 6.42241 | 17200 ft | 339 kts | 306° |
| 2026-04-23 18:16 | 46.13106 | 6.39433 | 16787 ft | 338 kts | 306° |
| 2026-04-23 18:16 | 46.14422 | 6.36642 | 16393 ft | 337 kts | 306° |
| 2026-04-23 18:16 | 46.15735 | 6.33857 | 15981 ft | 336 kts | 306° |
| 2026-04-23 18:17 | 46.17854 | 6.27897 | 15093 ft | 339 kts | 279° |
| 2026-04-23 18:17 | 46.17794 | 6.24513 | 14684 ft | 340 kts | 256° |
| 2026-04-23 18:17 | 46.16870 | 6.21434 | 14530 ft | 328 kts | 235° |
| 2026-04-23 18:17 | 46.15431 | 6.18967 | 13989 ft | 322 kts | 226° |
| 2026-04-23 18:18 | 46.13889 | 6.16642 | 13407 ft | 319 kts | 225° |
| 2026-04-23 18:18 | 46.12332 | 6.14354 | 13043 ft | 318 kts | 224° |
| 2026-04-23 18:18 | 46.10784 | 6.12097 | 12617 ft | 314 kts | 224° |
| 2026-04-23 18:18 | 46.09270 | 6.09891 | 12194 ft | 305 kts | 224° |
| 2026-04-23 18:19 | 46.07769 | 6.07718 | 11798 ft | 306 kts | 224° |
| 2026-04-23 18:19 | 46.06261 | 6.05556 | 11402 ft | 306 kts | 224° |
| 2026-04-23 18:19 | 46.04756 | 6.03404 | 11000 ft | 306 kts | 224° |
| 2026-04-23 18:19 | 46.03246 | 6.01238 | 10600 ft | 306 kts | 224° |
| 2026-04-23 18:20 | 46.01755 | 5.99087 | 10244 ft | 304 kts | 224° |
| 2026-04-23 18:20 | 46.00275 | 5.96949 | 9915 ft | 296 kts | 224° |
| 2026-04-23 18:20 | 45.98843 | 5.94882 | 9447 ft | 285 kts | 224° |
| 2026-04-23 18:20 | 45.97569 | 5.92787 | 8881 ft | 280 kts | 240° |
| 2026-04-23 18:21 | 45.96916 | 5.90263 | 8633 ft | 263 kts | 262° |
| 2026-04-23 18:21 | 45.96926 | 5.87689 | 8086 ft | 259 kts | 284° |
| 2026-04-23 18:21 | 45.97614 | 5.85365 | 7658 ft | 250 kts | 306° |
| 2026-04-23 18:21 | 45.98795 | 5.83593 | 7158 ft | 244 kts | 326° |
| 2026-04-23 18:22 | 46.00262 | 5.82532 | 6935 ft | 229 kts | 345° |
| 2026-04-23 18:22 | 46.01806 | 5.82170 | 6791 ft | 224 kts | 1° |
| 2026-04-23 18:22 | 46.03338 | 5.82454 | 6603 ft | 220 kts | 19° |
| 2026-04-23 18:22 | 46.04728 | 5.83340 | 6368 ft | 218 kts | 34° |
| 2026-04-23 18:23 | 46.05518 | 5.84219 | 6184 ft | 217 kts | 45° |
| 2026-04-23 18:23 | 46.07981 | 5.87793 | 5522 ft | 213 kts | 45° |
| 2026-04-23 18:24 | 46.10066 | 5.90823 | 4962 ft | 213 kts | 45° |
| 2026-04-23 18:24 | 46.11113 | 5.92347 | 4659 ft | 213 kts | 45° |
| 2026-04-23 18:24 | 46.12153 | 5.93862 | 4372 ft | 212 kts | 45° |
| 2026-04-23 18:25 | 46.14213 | 5.96865 | 3827 ft | 212 kts | 44° |
| 2026-04-23 18:25 | 46.15255 | 5.98384 | 3528 ft | 212 kts | 44° |
| 2026-04-23 18:25 | 46.16268 | 5.99868 | 3232 ft | 200 kts | 45° |
| 2026-04-23 18:25 | 46.17195 | 6.01260 | 3051 ft | 185 kts | 45° |
| 2026-04-23 18:26 | 46.18063 | 6.02520 | 2825 ft | 169 kts | 43° |
| 2026-04-23 18:26 | 46.18868 | 6.03628 | 2588 ft | 156 kts | 44° |
| 2026-04-23 18:26 | 46.19601 | 6.04734 | 2329 ft | 149 kts | 44° |
| 2026-04-23 18:26 | 46.20327 | 6.05770 | 2102 ft | 143 kts | 44° |
| 2026-04-23 18:27 | 46.21009 | 6.06810 | 1932 ft | 140 kts | 43° |
| 2026-04-23 18:27 | 46.21702 | 6.07801 | 1773 ft | 140 kts | 44° |
| 2026-04-23 18:27 | 46.22387 | 6.08801 | 1574 ft | 140 kts | 44° |
| 2026-04-23 18:27 | 46.23061 | 6.09794 | 1413 ft | 133 kts | 44° |
| 2026-04-23 18:28 | 46.23605 | 6.10596 | 1384 ft | 87 kts | 47° |
| 2026-04-23 18:28 | 46.23838 | 6.10943 | 1380 ft | 18 kts | 45° |
| 2026-04-23 18:28 | 46.23827 | 6.11069 | 1378 ft | 14 kts | 170° |
| 2026-04-23 18:28 | 46.23772 | 6.11084 | 1380 ft | 0 kts | 170° |
| 2026-04-23 18:30 | 46.23760 | 6.11087 | 1382 ft | 1 kts | 170° |
| 2026-04-23 18:30 | 46.23739 | 6.11090 | 1384 ft | 3 kts | 178° |
| 2026-04-23 18:30 | 46.23698 | 6.11073 | 1387 ft | 10 kts | 202° |
| 2026-04-23 18:31 | 46.23616 | 6.11138 | 1394 ft | 20 kts | 136° |
| 2026-04-23 18:31 | 46.23525 | 6.11099 | 1398 ft | 14 kts | 227° |
| 2026-04-23 18:31 | 46.23461 | 6.11002 | 1396 ft | 13 kts | 226° |
| 2026-04-23 18:31 | 46.23401 | 6.10913 | 1398 ft | 12 kts | 225° |
| 2026-04-23 18:32 | 46.23363 | 6.10857 | 1393 ft | 12 kts | 225° |
| 2026-04-23 18:32 | 46.23299 | 6.10796 | 1401 ft | 11 kts | 197° |
| 2026-04-23 18:32 | 46.23233 | 6.10758 | 1402 ft | 10 kts | 220° |
| 2026-04-23 18:32 | 46.23187 | 6.10691 | 1396 ft | 9 kts | 226° |
| 2026-04-23 18:33 | 46.23142 | 6.10624 | 1399 ft | 9 kts | 225° |
| 2026-04-23 18:33 | 46.23100 | 6.10563 | 1401 ft | 9 kts | 226° |
| 2026-04-23 18:33 | 46.23056 | 6.10539 | 1398 ft | 6 kts | 153° |
| 2026-04-23 18:33 | 46.23038 | 6.10563 | 1396 ft | 0 kts | 135° |
| 2026-04-23 18:34 | 46.23032 | 6.10570 | 1396 ft | 1 kts | 139° |
| 2026-04-23 18:34 | 46.23032 | 6.10571 | 1396 ft | 0 kts | 139° |
| 2026-04-23 18:59 | 46.23032 | 6.10570 | 1393 ft | 1 kts | 139° |
| 2026-04-23 18:59 | 46.23051 | 6.10549 | 1404 ft | 4 kts | 153° |
| 2026-04-23 19:00 | 46.23075 | 6.10538 | 1393 ft | 4 kts | 191° |
| 2026-04-23 19:00 | 46.23090 | 6.10549 | 1399 ft | 1 kts | 227° |
| 2026-04-23 19:00 | 46.23092 | 6.10552 | 1398 ft | 0 kts | 227° |
| 2026-04-23 19:02 | 46.23088 | 6.10546 | 1400 ft | 3 kts | 227° |
| 2026-04-23 19:02 | 46.23069 | 6.10517 | 1400 ft | 8 kts | 227° |
| 2026-04-23 19:02 | 46.23015 | 6.10437 | 1398 ft | 14 kts | 224° |
| 2026-04-23 19:02 | 46.22954 | 6.10320 | 1394 ft | 14 kts | 269° |
| 2026-04-23 19:03 | 46.23014 | 6.10220 | 1398 ft | 14 kts | 317° |
| 2026-04-23 19:03 | 46.23040 | 6.10107 | 1394 ft | 12 kts | 233° |
| 2026-04-23 19:03 | 46.22987 | 6.10026 | 1401 ft | 10 kts | 225° |
| 2026-04-23 19:03 | 46.22940 | 6.09958 | 1406 ft | 9 kts | 225° |
| 2026-04-23 19:04 | 46.22923 | 6.09894 | 1401 ft | 4 kts | 276° |
| 2026-04-23 19:04 | 46.22925 | 6.09880 | 1403 ft | 2 kts | 282° |
| 2026-04-23 19:04 | 46.22935 | 6.09820 | 1408 ft | 10 kts | 286° |
| 2026-04-23 19:04 | 46.22951 | 6.09751 | 1413 ft | 7 kts | 294° |
| 2026-04-23 19:05 | 46.23028 | 6.09750 | 1415 ft | 20 kts | 39° |
| 2026-04-23 19:05 | 46.23247 | 6.10066 | 1407 ft | 80 kts | 44° |
| 2026-04-23 19:05 | 46.23800 | 6.10870 | 1381 ft | 142 kts | 44° |
| 2026-04-23 19:05 | 46.24554 | 6.11946 | 1822 ft | 155 kts | 43° |
| 2026-04-23 19:06 | 46.25325 | 6.13070 | 2498 ft | 159 kts | 45° |
| 2026-04-23 19:06 | 46.26112 | 6.14191 | 3212 ft | 162 kts | 44° |
| 2026-04-23 19:06 | 46.26953 | 6.15405 | 3634 ft | 181 kts | 45° |
| 2026-04-23 19:06 | 46.27884 | 6.16791 | 3965 ft | 203 kts | 46° |
| 2026-04-23 19:07 | 46.28922 | 6.18351 | 4309 ft | 228 kts | 46° |
| 2026-04-23 19:07 | 46.30078 | 6.20082 | 4804 ft | 251 kts | 46° |
| 2026-04-23 19:07 | 46.31322 | 6.21935 | 5588 ft | 260 kts | 46° |
| 2026-04-23 19:07 | 46.32601 | 6.23828 | 6480 ft | 267 kts | 46° |
| 2026-04-23 19:08 | 46.33924 | 6.25752 | 7332 ft | 272 kts | 42° |
| 2026-04-23 19:08 | 46.35560 | 6.27156 | 8193 ft | 279 kts | 19° |
| 2026-04-23 19:08 | 46.37499 | 6.27529 | 9087 ft | 284 kts | 3° |
| 2026-04-23 19:08 | 46.39486 | 6.27604 | 10008 ft | 288 kts | 3° |
| 2026-04-23 19:09 | 46.41516 | 6.27666 | 10661 ft | 301 kts | 4° |
| 2026-04-23 19:09 | 46.43689 | 6.27736 | 11019 ft | 321 kts | 4° |
| 2026-04-23 19:09 | 46.45943 | 6.27808 | 11752 ft | 327 kts | 4° |
| 2026-04-23 19:09 | 46.48224 | 6.27884 | 12606 ft | 329 kts | 4° |
| 2026-04-23 19:10 | 46.50531 | 6.27965 | 13387 ft | 334 kts | 4° |
| 2026-04-23 19:10 | 46.52861 | 6.28049 | 14182 ft | 336 kts | 4° |
| 2026-04-23 19:10 | 46.55210 | 6.28136 | 14904 ft | 339 kts | 3° |
| 2026-04-23 19:10 | 46.57548 | 6.28221 | 15562 ft | 343 kts | 4° |
| 2026-04-23 19:11 | 46.59948 | 6.28310 | 16220 ft | 347 kts | 4° |
| 2026-04-23 19:11 | 46.62404 | 6.28398 | 16909 ft | 350 kts | 4° |
| 2026-04-23 19:11 | 46.64822 | 6.28366 | 17563 ft | 355 kts | 357° |
| 2026-04-23 19:11 | 46.67270 | 6.27684 | 18213 ft | 363 kts | 346° |
| 2026-04-23 19:12 | 46.68875 | 6.26808 | 18642 ft | 368 kts | 338° |
| 2026-04-23 19:12 | 46.71877 | 6.24409 | 19368 ft | 374 kts | 334° |
| 2026-04-23 19:12 | 46.74159 | 6.22534 | 19932 ft | 379 kts | 333° |
| 2026-04-23 19:12 | 46.76466 | 6.20644 | 20468 ft | 383 kts | 333° |
| 2026-04-23 19:13 | 46.78800 | 6.18737 | 21010 ft | 386 kts | 333° |
| 2026-04-23 19:13 | 46.81158 | 6.16812 | 21542 ft | 390 kts | 333° |
| 2026-04-23 19:13 | 46.83536 | 6.14869 | 22063 ft | 394 kts | 333° |
| 2026-04-23 19:13 | 46.85938 | 6.12906 | 22554 ft | 398 kts | 333° |
| 2026-04-23 19:14 | 46.87581 | 6.11562 | 22892 ft | 401 kts | 333° |
| 2026-04-23 19:14 | 46.90028 | 6.09554 | 23360 ft | 406 kts | 333° |
| 2026-04-23 19:14 | 46.92505 | 6.07517 | 23852 ft | 410 kts | 333° |
| 2026-04-23 19:14 | 46.95001 | 6.05475 | 24247 ft | 413 kts | 335° |
| 2026-04-23 19:15 | 46.97614 | 6.03868 | 24646 ft | 413 kts | 345° |
| 2026-04-23 19:15 | 47.00449 | 6.02927 | 25052 ft | 413 kts | 355° |
| 2026-04-23 19:15 | 47.03272 | 6.02710 | 25441 ft | 412 kts | 4° |
| 2026-04-23 19:15 | 47.06146 | 6.02778 | 25860 ft | 415 kts | 4° |
| 2026-04-23 19:16 | 47.09042 | 6.02838 | 26267 ft | 418 kts | 4° |
| 2026-04-23 19:16 | 47.11960 | 6.02889 | 26676 ft | 421 kts | 4° |
| 2026-04-23 19:16 | 47.14893 | 6.02932 | 27070 ft | 423 kts | 4° |
| 2026-04-23 19:17 | 47.34471 | 6.03248 | 29492 ft | 441 kts | 5° |
| 2026-04-23 19:17 | 47.38719 | 6.03333 | 29980 ft | 445 kts | 5° |
| 2026-04-23 19:17 | 47.41826 | 6.03415 | 30330 ft | 448 kts | 5° |
| 2026-04-23 19:17 | 47.44948 | 6.03509 | 30624 ft | 450 kts | 5° |
| 2026-04-23 19:18 | 47.48086 | 6.03608 | 30924 ft | 452 kts | 5° |
| 2026-04-23 19:18 | 47.51234 | 6.03705 | 31215 ft | 454 kts | 5° |
| 2026-04-23 19:18 | 47.54402 | 6.03798 | 31497 ft | 456 kts | 5° |